TVF3197 GMAD-LFRS
Flight info
| Callsign | TVF3197 |
|---|---|
| Flight time | 2h 50m |
| Altitude | 34000 |
| Route | MOGBA UH300 ESS UR724 OSLAD DCT PESAS DCT PARKA DCT TLD DCT SIE DCT EDIGO DCT DGO L176 LUSEM DCT LULUT DCT CNA DCT MANAK |
| Aircraft | B738/M-SDFGHIJ1RWXY/LB1 |
Departure
| Time | 2026-04-22 12:21 |
|---|---|
| Airport | Al Massira Airport (GMAD) |
Arrival
| Time | 2026-04-22 15:11 |
|---|---|
| Airport | Nantes Atlantique Airport (LFRS) |
| Time | Latitude | Longitude | Altitude | Speed | Heading |
|---|---|---|---|---|---|
| 2026-04-22 11:55 | 30.32890 | -9.41198 | 230 ft | 0 kts | 2° |
| 2026-04-22 12:10 | 30.32872 | -9.41198 | 234 ft | 4 kts | 2° |
| 2026-04-22 12:11 | 30.32849 | -9.41199 | 232 ft | 3 kts | 2° |
| 2026-04-22 12:11 | 30.32826 | -9.41207 | 231 ft | 4 kts | 49° |
| 2026-04-22 12:11 | 30.32815 | -9.41233 | 230 ft | 4 kts | 83° |
| 2026-04-22 12:11 | 30.32814 | -9.41259 | 230 ft | 1 kts | 91° |
| 2026-04-22 12:14 | 30.32814 | -9.41258 | 230 ft | 1 kts | 92° |
| 2026-04-22 12:15 | 30.32813 | -9.41233 | 230 ft | 4 kts | 92° |
| 2026-04-22 12:15 | 30.32812 | -9.41197 | 230 ft | 6 kts | 91° |
| 2026-04-22 12:15 | 30.32812 | -9.41153 | 230 ft | 10 kts | 91° |
| 2026-04-22 12:15 | 30.32808 | -9.41022 | 230 ft | 13 kts | 92° |
| 2026-04-22 12:16 | 30.32806 | -9.40923 | 230 ft | 12 kts | 89° |
| 2026-04-22 12:16 | 30.32805 | -9.40856 | 230 ft | 12 kts | 91° |
| 2026-04-22 12:16 | 30.32803 | -9.40762 | 230 ft | 11 kts | 91° |
| 2026-04-22 12:16 | 30.32789 | -9.40689 | 231 ft | 9 kts | 127° |
| 2026-04-22 12:17 | 30.32729 | -9.40665 | 230 ft | 9 kts | 179° |
| 2026-04-22 12:17 | 30.32662 | -9.40666 | 230 ft | 10 kts | 182° |
| 2026-04-22 12:17 | 30.32594 | -9.40669 | 230 ft | 10 kts | 181° |
| 2026-04-22 12:17 | 30.32519 | -9.40671 | 230 ft | 12 kts | 181° |
| 2026-04-22 12:18 | 30.32445 | -9.40642 | 231 ft | 12 kts | 121° |
| 2026-04-22 12:18 | 30.32436 | -9.40549 | 230 ft | 12 kts | 91° |
| 2026-04-22 12:18 | 30.32434 | -9.40444 | 230 ft | 15 kts | 91° |
| 2026-04-22 12:18 | 30.32430 | -9.40318 | 230 ft | 16 kts | 91° |
| 2026-04-22 12:19 | 30.32427 | -9.40155 | 230 ft | 24 kts | 91° |
| 2026-04-22 12:19 | 30.32422 | -9.39948 | 230 ft | 28 kts | 91° |
| 2026-04-22 12:19 | 30.32416 | -9.39719 | 230 ft | 25 kts | 91° |
| 2026-04-22 12:19 | 30.32412 | -9.39569 | 230 ft | 16 kts | 92° |
| 2026-04-22 12:20 | 30.32357 | -9.39496 | 230 ft | 14 kts | 180° |
| 2026-04-22 12:20 | 30.32263 | -9.39510 | 231 ft | 13 kts | 192° |
| 2026-04-22 12:20 | 30.32226 | -9.39591 | 230 ft | 1 kts | 272° |
| 2026-04-22 12:21 | 30.32230 | -9.39774 | 230 ft | 57 kts | 271° |
| 2026-04-22 12:21 | 30.32247 | -9.40498 | 230 ft | 121 kts | 271° |
| 2026-04-22 12:21 | 30.32274 | -9.41680 | 357 ft | 162 kts | 271° |
| 2026-04-22 12:21 | 30.32348 | -9.43040 | 915 ft | 181 kts | 272° |
| 2026-04-22 12:22 | 30.32427 | -9.44429 | 1869 ft | 161 kts | 272° |
| 2026-04-22 12:22 | 30.32503 | -9.45752 | 2195 ft | 176 kts | 273° |
| 2026-04-22 12:22 | 30.32560 | -9.47200 | 2509 ft | 181 kts | 272° |
| 2026-04-22 12:22 | 30.32503 | -9.48688 | 2815 ft | 191 kts | 254° |
| 2026-04-22 12:23 | 30.31963 | -9.50094 | 3245 ft | 196 kts | 237° |
| 2026-04-22 12:23 | 30.31130 | -9.51405 | 3611 ft | 212 kts | 223° |
| 2026-04-22 12:23 | 30.30028 | -9.52626 | 3909 ft | 229 kts | 220° |
| 2026-04-22 12:23 | 30.28854 | -9.53925 | 4395 ft | 239 kts | 223° |
| 2026-04-22 12:24 | 30.27696 | -9.55419 | 4707 ft | 262 kts | 234° |
| 2026-04-22 12:24 | 30.26972 | -9.57385 | 5427 ft | 271 kts | 250° |
| 2026-04-22 12:24 | 30.26500 | -9.59515 | 6211 ft | 276 kts | 251° |
| 2026-04-22 12:24 | 30.26053 | -9.61695 | 6906 ft | 280 kts | 251° |
| 2026-04-22 12:25 | 30.25593 | -9.63884 | 7704 ft | 280 kts | 251° |
| 2026-04-22 12:25 | 30.25123 | -9.66065 | 8529 ft | 280 kts | 250° |
| 2026-04-22 12:25 | 30.24653 | -9.68252 | 9318 ft | 282 kts | 254° |
| 2026-04-22 12:25 | 30.24749 | -9.70556 | 10024 ft | 299 kts | 286° |
| 2026-04-22 12:26 | 30.25925 | -9.72627 | 10430 ft | 326 kts | 314° |
| 2026-04-22 12:26 | 30.27930 | -9.73991 | 10614 ft | 353 kts | 335° |
| 2026-04-22 12:26 | 30.30265 | -9.75102 | 10877 ft | 370 kts | 334° |
| 2026-04-22 12:26 | 30.32651 | -9.76379 | 11444 ft | 375 kts | 331° |
| 2026-04-22 12:27 | 30.35071 | -9.77517 | 12154 ft | 379 kts | 346° |
| 2026-04-22 12:27 | 30.37678 | -9.77623 | 12854 ft | 383 kts | 4° |
| 2026-04-22 12:27 | 30.40337 | -9.77350 | 13534 ft | 385 kts | 3° |
| 2026-04-22 12:27 | 30.43023 | -9.77078 | 14103 ft | 389 kts | 3° |
| 2026-04-22 12:28 | 30.45729 | -9.76819 | 14687 ft | 391 kts | 3° |
| 2026-04-22 12:28 | 30.48444 | -9.76573 | 15303 ft | 392 kts | 2° |
| 2026-04-22 12:28 | 30.51173 | -9.76337 | 15908 ft | 394 kts | 2° |
| 2026-04-22 12:28 | 30.53918 | -9.76103 | 16501 ft | 396 kts | 2° |
| 2026-04-22 12:29 | 30.56673 | -9.75868 | 17084 ft | 398 kts | 2° |
| 2026-04-22 12:29 | 30.59447 | -9.75631 | 17666 ft | 401 kts | 2° |
| 2026-04-22 12:29 | 30.62236 | -9.75391 | 18222 ft | 404 kts | 2° |
| 2026-04-22 12:29 | 30.65050 | -9.75149 | 18704 ft | 407 kts | 2° |
| 2026-04-22 12:30 | 30.70728 | -9.74658 | 19676 ft | 412 kts | 2° |
| 2026-04-22 12:30 | 30.73590 | -9.74411 | 20169 ft | 414 kts | 2° |
| 2026-04-22 12:30 | 30.76471 | -9.74162 | 20650 ft | 416 kts | 2° |
| 2026-04-22 12:31 | 30.79367 | -9.73912 | 21126 ft | 419 kts | 2° |
| 2026-04-22 12:31 | 30.82284 | -9.73659 | 21589 ft | 421 kts | 2° |
| 2026-04-22 12:31 | 30.85216 | -9.73405 | 22043 ft | 424 kts | 2° |
| 2026-04-22 12:31 | 30.88169 | -9.73149 | 22502 ft | 427 kts | 2° |
| 2026-04-22 12:32 | 30.91145 | -9.72892 | 22864 ft | 431 kts | 2° |
| 2026-04-22 12:32 | 30.97168 | -9.72369 | 23722 ft | 436 kts | 1° |
| 2026-04-22 12:32 | 31.00198 | -9.72105 | 24089 ft | 438 kts | 1° |
| 2026-04-22 12:33 | 31.03243 | -9.71842 | 24461 ft | 440 kts | 1° |
| 2026-04-22 12:33 | 31.06299 | -9.71582 | 24814 ft | 442 kts | 1° |
| 2026-04-22 12:33 | 31.09372 | -9.71322 | 25164 ft | 444 kts | 1° |
| 2026-04-22 12:33 | 31.12458 | -9.71060 | 25523 ft | 446 kts | 1° |
| 2026-04-22 12:34 | 31.15559 | -9.70797 | 25883 ft | 447 kts | 1° |
| 2026-04-22 12:34 | 31.18676 | -9.70532 | 26189 ft | 450 kts | 1° |
| 2026-04-22 12:34 | 31.21808 | -9.70266 | 26505 ft | 453 kts | 1° |
| 2026-04-22 12:34 | 31.24956 | -9.69997 | 26846 ft | 454 kts | 1° |
| 2026-04-22 12:35 | 31.28115 | -9.69727 | 27176 ft | 456 kts | 1° |
| 2026-04-22 12:35 | 31.31286 | -9.69455 | 27496 ft | 458 kts | 1° |
| 2026-04-22 12:35 | 31.34470 | -9.69183 | 27808 ft | 460 kts | 1° |
| 2026-04-22 12:35 | 31.37669 | -9.68909 | 28108 ft | 462 kts | 0° |
| 2026-04-22 12:36 | 31.40881 | -9.68552 | 28393 ft | 466 kts | 6° |
| 2026-04-22 12:36 | 31.44071 | -9.67781 | 28686 ft | 470 kts | 10° |
| 2026-04-22 12:36 | 31.47254 | -9.66858 | 28954 ft | 473 kts | 11° |
| 2026-04-22 12:36 | 31.50447 | -9.65888 | 29224 ft | 475 kts | 11° |
| 2026-04-22 12:37 | 31.53650 | -9.64910 | 29534 ft | 476 kts | 11° |
| 2026-04-22 12:37 | 31.56854 | -9.63946 | 29945 ft | 474 kts | 11° |
| 2026-04-22 12:37 | 31.60042 | -9.63002 | 30346 ft | 472 kts | 10° |
| 2026-04-22 12:37 | 31.63224 | -9.62074 | 30678 ft | 471 kts | 10° |
| 2026-04-22 12:38 | 31.66403 | -9.61156 | 30954 ft | 471 kts | 10° |
| 2026-04-22 12:38 | 31.69587 | -9.60241 | 31225 ft | 471 kts | 9° |
| 2026-04-22 12:38 | 31.72767 | -9.59329 | 31558 ft | 471 kts | 9° |
| 2026-04-22 12:38 | 31.75951 | -9.58414 | 31807 ft | 471 kts | 9° |
| 2026-04-22 12:39 | 31.79137 | -9.57499 | 32092 ft | 471 kts | 9° |
| 2026-04-22 12:39 | 31.85442 | -9.55681 | 32724 ft | 469 kts | 9° |
| 2026-04-22 12:39 | 31.88607 | -9.54767 | 32995 ft | 468 kts | 9° |
| 2026-04-22 12:40 | 31.91773 | -9.53852 | 33266 ft | 468 kts | 9° |
| 2026-04-22 12:40 | 31.94932 | -9.52939 | 33552 ft | 467 kts | 9° |
| 2026-04-22 12:40 | 31.98086 | -9.52026 | 33819 ft | 467 kts | 9° |
| 2026-04-22 12:40 | 32.01238 | -9.51113 | 33994 ft | 468 kts | 9° |
| 2026-04-22 12:41 | 32.04416 | -9.50194 | 33972 ft | 471 kts | 9° |
| 2026-04-22 12:41 | 32.10778 | -9.48349 | 33971 ft | 470 kts | 9° |
| 2026-04-22 12:42 | 32.17078 | -9.46516 | 33973 ft | 464 kts | 9° |
| 2026-04-22 12:42 | 32.23345 | -9.44693 | 33976 ft | 463 kts | 9° |
| 2026-04-22 12:43 | 32.29589 | -9.42874 | 33994 ft | 462 kts | 9° |
| 2026-04-22 12:43 | 32.35831 | -9.41054 | 33986 ft | 462 kts | 9° |
| 2026-04-22 12:44 | 32.42065 | -9.39233 | 33990 ft | 462 kts | 9° |
| 2026-04-22 12:44 | 32.48306 | -9.37408 | 33984 ft | 462 kts | 9° |
| 2026-04-22 12:45 | 32.54549 | -9.35579 | 34012 ft | 463 kts | 9° |
| 2026-04-22 12:45 | 32.60814 | -9.33741 | 34002 ft | 464 kts | 9° |
| 2026-04-22 12:46 | 32.67088 | -9.31897 | 33998 ft | 465 kts | 9° |
| 2026-04-22 12:46 | 32.73373 | -9.30048 | 33999 ft | 466 kts | 9° |
| 2026-04-22 12:47 | 32.79667 | -9.28192 | 33999 ft | 466 kts | 9° |
| 2026-04-22 12:47 | 32.85968 | -9.26333 | 34006 ft | 467 kts | 9° |
| 2026-04-22 12:48 | 32.92233 | -9.24481 | 34004 ft | 467 kts | 10° |
| 2026-04-22 12:48 | 32.98537 | -9.22615 | 34003 ft | 467 kts | 10° |
| 2026-04-22 12:49 | 33.04836 | -9.20747 | 34009 ft | 466 kts | 10° |
| 2026-04-22 12:49 | 33.11132 | -9.18878 | 34008 ft | 466 kts | 10° |
| 2026-04-22 12:50 | 33.17422 | -9.17009 | 34007 ft | 465 kts | 10° |
| 2026-04-22 12:50 | 33.23706 | -9.15150 | 34009 ft | 465 kts | 9° |
| 2026-04-22 12:51 | 33.29985 | -9.13292 | 34007 ft | 465 kts | 9° |
| 2026-04-22 12:51 | 33.36258 | -9.11432 | 34025 ft | 464 kts | 10° |
| 2026-04-22 12:52 | 33.42532 | -9.09568 | 34018 ft | 465 kts | 10° |
| 2026-04-22 12:52 | 33.48801 | -9.07702 | 34004 ft | 464 kts | 10° |
| 2026-04-22 12:53 | 33.55063 | -9.05836 | 34010 ft | 463 kts | 10° |
| 2026-04-22 12:53 | 33.61316 | -9.03969 | 34012 ft | 463 kts | 10° |
| 2026-04-22 12:54 | 33.67568 | -9.02101 | 34022 ft | 463 kts | 10° |
| 2026-04-22 12:54 | 33.73818 | -9.00230 | 34014 ft | 463 kts | 10° |
| 2026-04-22 12:55 | 33.79016 | -8.98673 | 34015 ft | 463 kts | 10° |
| 2026-04-22 12:55 | 33.86323 | -8.96479 | 34019 ft | 463 kts | 10° |
| 2026-04-22 12:56 | 33.92578 | -8.94598 | 34030 ft | 464 kts | 10° |
| 2026-04-22 12:56 | 33.98840 | -8.92712 | 34021 ft | 464 kts | 10° |
| 2026-04-22 12:57 | 34.05066 | -8.90834 | 34009 ft | 464 kts | 10° |
| 2026-04-22 12:57 | 34.11335 | -8.88940 | 34020 ft | 465 kts | 10° |
| 2026-04-22 12:58 | 34.17606 | -8.87042 | 34038 ft | 465 kts | 10° |
| 2026-04-22 12:58 | 34.23885 | -8.85139 | 34027 ft | 465 kts | 10° |
| 2026-04-22 12:59 | 34.30166 | -8.83233 | 34039 ft | 465 kts | 10° |
| 2026-04-22 12:59 | 34.36451 | -8.81322 | 34019 ft | 466 kts | 10° |
| 2026-04-22 13:00 | 34.42735 | -8.79409 | 34034 ft | 466 kts | 10° |
| 2026-04-22 13:00 | 34.49017 | -8.77491 | 34028 ft | 466 kts | 10° |
| 2026-04-22 13:01 | 34.55303 | -8.75564 | 34029 ft | 466 kts | 10° |
| 2026-04-22 13:01 | 34.61585 | -8.73635 | 34023 ft | 466 kts | 10° |
| 2026-04-22 13:02 | 34.67868 | -8.71703 | 34020 ft | 465 kts | 10° |
| 2026-04-22 13:02 | 34.73081 | -8.70097 | 34030 ft | 465 kts | 10° |
| 2026-04-22 13:03 | 34.79351 | -8.68163 | 34030 ft | 465 kts | 10° |
| 2026-04-22 13:03 | 34.85612 | -8.66229 | 34031 ft | 464 kts | 10° |
| 2026-04-22 13:04 | 34.91864 | -8.64296 | 34032 ft | 463 kts | 10° |
| 2026-04-22 13:04 | 34.98109 | -8.62361 | 34038 ft | 463 kts | 10° |
| 2026-04-22 13:05 | 35.04351 | -8.60424 | 34029 ft | 463 kts | 10° |
| 2026-04-22 13:05 | 35.10588 | -8.58485 | 34034 ft | 462 kts | 10° |
| 2026-04-22 13:06 | 35.16826 | -8.56544 | 34038 ft | 463 kts | 10° |
| 2026-04-22 13:06 | 35.23065 | -8.54598 | 34040 ft | 463 kts | 10° |
| 2026-04-22 13:07 | 35.29309 | -8.52649 | 34036 ft | 463 kts | 10° |
| 2026-04-22 13:07 | 35.35561 | -8.50693 | 34036 ft | 464 kts | 10° |
| 2026-04-22 13:08 | 35.41819 | -8.48732 | 34036 ft | 464 kts | 10° |
| 2026-04-22 13:08 | 35.48081 | -8.46768 | 34050 ft | 465 kts | 10° |
| 2026-04-22 13:09 | 35.54354 | -8.44796 | 34039 ft | 466 kts | 10° |
| 2026-04-22 13:09 | 35.60630 | -8.42820 | 34038 ft | 466 kts | 10° |
| 2026-04-22 13:10 | 35.66911 | -8.40839 | 34038 ft | 466 kts | 10° |
| 2026-04-22 13:10 | 35.73196 | -8.38854 | 34038 ft | 466 kts | 10° |
| 2026-04-22 13:11 | 35.79476 | -8.36867 | 34034 ft | 466 kts | 10° |
| 2026-04-22 13:11 | 35.85757 | -8.34877 | 34039 ft | 466 kts | 10° |
| 2026-04-22 13:12 | 35.92035 | -8.32884 | 34042 ft | 465 kts | 10° |
| 2026-04-22 13:12 | 35.98146 | -8.30192 | 34050 ft | 472 kts | 25° |
| 2026-04-22 13:13 | 36.03598 | -8.25709 | 34039 ft | 474 kts | 32° |
| 2026-04-22 13:13 | 36.08966 | -8.20975 | 34038 ft | 474 kts | 32° |
| 2026-04-22 13:14 | 36.14345 | -8.16278 | 34033 ft | 473 kts | 32° |
| 2026-04-22 13:14 | 36.19735 | -8.11622 | 34040 ft | 472 kts | 32° |
| 2026-04-22 13:15 | 36.25126 | -8.06977 | 34055 ft | 472 kts | 31° |
| 2026-04-22 13:15 | 36.30511 | -8.02330 | 34041 ft | 472 kts | 31° |
| 2026-04-22 13:16 | 36.35893 | -7.97675 | 34037 ft | 472 kts | 31° |
| 2026-04-22 13:16 | 36.41271 | -7.93013 | 34042 ft | 471 kts | 32° |
| 2026-04-22 13:17 | 36.46648 | -7.88345 | 34041 ft | 472 kts | 32° |
| 2026-04-22 13:17 | 36.52024 | -7.83669 | 34047 ft | 472 kts | 32° |
| 2026-04-22 13:18 | 36.57404 | -7.78982 | 34044 ft | 473 kts | 32° |
| 2026-04-22 13:18 | 36.62793 | -7.74278 | 34041 ft | 473 kts | 32° |
| 2026-04-22 13:19 | 36.68177 | -7.69571 | 34038 ft | 473 kts | 32° |
| 2026-04-22 13:19 | 36.73567 | -7.64850 | 34042 ft | 474 kts | 32° |
| 2026-04-22 13:20 | 36.78959 | -7.60119 | 34049 ft | 474 kts | 32° |
| 2026-04-22 13:20 | 36.84348 | -7.55382 | 34039 ft | 474 kts | 32° |
| 2026-04-22 13:21 | 36.89732 | -7.50641 | 34036 ft | 473 kts | 32° |
| 2026-04-22 13:21 | 36.95105 | -7.45901 | 34037 ft | 472 kts | 32° |
| 2026-04-22 13:22 | 37.00464 | -7.41166 | 34038 ft | 471 kts | 32° |
| 2026-04-22 13:22 | 37.05703 | -7.36319 | 34023 ft | 473 kts | 37° |
| 2026-04-22 13:23 | 37.10657 | -7.30900 | 34034 ft | 473 kts | 39° |
| 2026-04-22 13:23 | 37.15542 | -7.25384 | 34029 ft | 472 kts | 39° |
| 2026-04-22 13:24 | 37.20442 | -7.19909 | 34028 ft | 471 kts | 38° |
| 2026-04-22 13:24 | 37.25355 | -7.14469 | 34024 ft | 471 kts | 38° |
| 2026-04-22 13:25 | 37.30272 | -7.09036 | 34024 ft | 471 kts | 38° |
| 2026-04-22 13:25 | 37.35183 | -7.03601 | 34012 ft | 470 kts | 38° |
| 2026-04-22 13:26 | 37.40085 | -6.98162 | 34013 ft | 470 kts | 38° |
| 2026-04-22 13:26 | 37.44976 | -6.92723 | 34016 ft | 469 kts | 38° |
| 2026-04-22 13:27 | 37.49867 | -6.87276 | 34008 ft | 469 kts | 38° |
| 2026-04-22 13:27 | 37.54752 | -6.81825 | 34014 ft | 469 kts | 39° |
| 2026-04-22 13:28 | 37.59630 | -6.76372 | 34001 ft | 469 kts | 39° |
| 2026-04-22 13:28 | 37.64509 | -6.70907 | 34002 ft | 468 kts | 39° |
| 2026-04-22 13:29 | 37.69378 | -6.65445 | 34000 ft | 468 kts | 39° |
| 2026-04-22 13:29 | 37.74242 | -6.59977 | 33995 ft | 468 kts | 39° |
| 2026-04-22 13:30 | 37.79104 | -6.54502 | 34003 ft | 468 kts | 39° |
| 2026-04-22 13:30 | 37.83963 | -6.49021 | 33995 ft | 468 kts | 39° |
| 2026-04-22 13:31 | 37.88817 | -6.43535 | 33998 ft | 468 kts | 39° |
| 2026-04-22 13:31 | 37.93668 | -6.38042 | 33988 ft | 468 kts | 39° |
| 2026-04-22 13:32 | 37.98479 | -6.32583 | 33991 ft | 467 kts | 39° |
| 2026-04-22 13:32 | 38.03318 | -6.27084 | 34001 ft | 467 kts | 39° |
| 2026-04-22 13:33 | 38.08148 | -6.21584 | 33995 ft | 466 kts | 39° |
| 2026-04-22 13:33 | 38.12967 | -6.16087 | 33987 ft | 465 kts | 39° |
| 2026-04-22 13:34 | 38.17778 | -6.10588 | 33987 ft | 465 kts | 39° |
| 2026-04-22 13:34 | 38.22582 | -6.05088 | 33996 ft | 464 kts | 39° |
| 2026-04-22 13:35 | 38.27375 | -5.99590 | 33983 ft | 464 kts | 39° |
| 2026-04-22 13:35 | 38.32158 | -5.94093 | 33986 ft | 463 kts | 39° |
| 2026-04-22 13:36 | 38.36932 | -5.88597 | 33991 ft | 462 kts | 39° |
| 2026-04-22 13:36 | 38.41696 | -5.83102 | 33996 ft | 462 kts | 39° |
| 2026-04-22 13:37 | 38.46457 | -5.77600 | 33991 ft | 462 kts | 39° |
| 2026-04-22 13:37 | 38.51213 | -5.72093 | 34000 ft | 462 kts | 39° |
| 2026-04-22 13:38 | 38.55967 | -5.66578 | 33997 ft | 462 kts | 39° |
| 2026-04-22 13:38 | 38.63089 | -5.58298 | 33998 ft | 461 kts | 39° |
| 2026-04-22 13:39 | 38.67830 | -5.52773 | 33998 ft | 461 kts | 39° |
| 2026-04-22 13:39 | 38.72567 | -5.47241 | 34000 ft | 460 kts | 39° |
| 2026-04-22 13:40 | 38.77294 | -5.41712 | 34018 ft | 460 kts | 40° |
| 2026-04-22 13:40 | 38.82016 | -5.36177 | 34010 ft | 460 kts | 40° |
| 2026-04-22 13:41 | 38.86735 | -5.30637 | 34001 ft | 460 kts | 40° |
| 2026-04-22 13:41 | 38.91447 | -5.25092 | 34013 ft | 459 kts | 40° |
| 2026-04-22 13:42 | 38.96155 | -5.19543 | 34003 ft | 459 kts | 40° |
| 2026-04-22 13:42 | 39.00930 | -5.14098 | 34001 ft | 457 kts | 33° |
| 2026-04-22 13:43 | 39.06240 | -5.09636 | 34012 ft | 456 kts | 29° |
| 2026-04-22 13:43 | 39.11626 | -5.05315 | 34021 ft | 456 kts | 29° |
| 2026-04-22 13:44 | 39.16954 | -5.00970 | 34015 ft | 457 kts | 30° |
| 2026-04-22 13:44 | 39.22305 | -4.96540 | 34027 ft | 457 kts | 30° |
| 2026-04-22 13:45 | 39.27652 | -4.92088 | 34023 ft | 458 kts | 31° |
| 2026-04-22 13:45 | 39.33005 | -4.87623 | 34023 ft | 458 kts | 31° |
| 2026-04-22 13:46 | 39.38361 | -4.83147 | 34024 ft | 459 kts | 31° |
| 2026-04-22 13:46 | 39.43718 | -4.78664 | 34020 ft | 459 kts | 31° |
| 2026-04-22 13:47 | 39.49075 | -4.74174 | 34038 ft | 459 kts | 31° |
| 2026-04-22 13:47 | 39.54437 | -4.69670 | 34023 ft | 460 kts | 31° |
| 2026-04-22 13:48 | 39.59802 | -4.65156 | 34021 ft | 460 kts | 31° |
| 2026-04-22 13:48 | 39.64254 | -4.61402 | 34020 ft | 460 kts | 31° |
| 2026-04-22 13:49 | 39.69616 | -4.56875 | 34015 ft | 460 kts | 31° |
| 2026-04-22 13:49 | 39.74970 | -4.52346 | 34023 ft | 459 kts | 31° |
| 2026-04-22 13:50 | 39.80318 | -4.47813 | 34020 ft | 458 kts | 31° |
| 2026-04-22 13:50 | 39.85653 | -4.43282 | 34025 ft | 457 kts | 31° |
| 2026-04-22 13:51 | 39.90973 | -4.38755 | 34020 ft | 456 kts | 31° |
| 2026-04-22 13:51 | 39.96290 | -4.34229 | 34029 ft | 456 kts | 30° |
| 2026-04-22 13:52 | 40.01884 | -4.30433 | 34029 ft | 453 kts | 22° |
| 2026-04-22 13:52 | 40.07623 | -4.27060 | 34025 ft | 452 kts | 22° |
| 2026-04-22 13:53 | 40.13360 | -4.23664 | 34029 ft | 453 kts | 22° |
| 2026-04-22 13:53 | 40.19077 | -4.20205 | 34036 ft | 453 kts | 22° |
| 2026-04-22 13:54 | 40.24788 | -4.16712 | 34032 ft | 453 kts | 23° |
| 2026-04-22 13:54 | 40.30506 | -4.13204 | 34032 ft | 454 kts | 23° |
| 2026-04-22 13:55 | 40.36226 | -4.09689 | 34034 ft | 454 kts | 23° |
| 2026-04-22 13:55 | 40.41952 | -4.06166 | 34046 ft | 455 kts | 23° |
| 2026-04-22 13:56 | 40.47651 | -4.02653 | 34044 ft | 456 kts | 23° |
| 2026-04-22 13:56 | 40.53393 | -3.99107 | 34054 ft | 456 kts | 23° |
| 2026-04-22 13:57 | 40.59139 | -3.95552 | 34063 ft | 457 kts | 23° |
| 2026-04-22 13:57 | 40.64892 | -3.91986 | 34072 ft | 457 kts | 23° |
| 2026-04-22 13:58 | 40.70645 | -3.88412 | 34073 ft | 457 kts | 23° |
| 2026-04-22 13:58 | 40.76394 | -3.84835 | 34074 ft | 457 kts | 23° |
| 2026-04-22 13:59 | 40.82141 | -3.81251 | 34039 ft | 456 kts | 23° |
| 2026-04-22 13:59 | 40.87876 | -3.77668 | 34038 ft | 456 kts | 23° |
| 2026-04-22 14:00 | 40.93608 | -3.74081 | 34031 ft | 455 kts | 23° |
| 2026-04-22 14:00 | 40.99321 | -3.70497 | 34030 ft | 454 kts | 23° |
| 2026-04-22 14:01 | 41.05026 | -3.66912 | 34024 ft | 453 kts | 23° |
| 2026-04-22 14:01 | 41.10712 | -3.63333 | 34033 ft | 452 kts | 22° |
| 2026-04-22 14:02 | 41.16399 | -3.59782 | 34030 ft | 451 kts | 21° |
| 2026-04-22 14:02 | 41.22182 | -3.56591 | 34018 ft | 450 kts | 19° |
| 2026-04-22 14:03 | 41.27994 | -3.53489 | 34016 ft | 450 kts | 19° |
| 2026-04-22 14:03 | 41.33800 | -3.50336 | 34020 ft | 451 kts | 19° |
| 2026-04-22 14:04 | 41.39601 | -3.47151 | 34014 ft | 451 kts | 19° |
| 2026-04-22 14:04 | 41.45404 | -3.43955 | 34007 ft | 452 kts | 19° |
| 2026-04-22 14:05 | 41.51172 | -3.40776 | 34012 ft | 451 kts | 19° |
| 2026-04-22 14:06 | 41.59878 | -3.35977 | 34006 ft | 451 kts | 19° |
| 2026-04-22 14:06 | 41.65676 | -3.32772 | 34004 ft | 451 kts | 19° |
| 2026-04-22 14:07 | 41.71466 | -3.29564 | 34005 ft | 450 kts | 19° |
| 2026-04-22 14:07 | 41.77251 | -3.26354 | 34015 ft | 450 kts | 19° |
| 2026-04-22 14:08 | 41.83031 | -3.23139 | 34007 ft | 450 kts | 19° |
| 2026-04-22 14:08 | 41.88805 | -3.19922 | 34005 ft | 449 kts | 19° |
| 2026-04-22 14:09 | 41.94567 | -3.16705 | 34023 ft | 448 kts | 19° |
| 2026-04-22 14:09 | 42.00324 | -3.13484 | 34007 ft | 448 kts | 19° |
| 2026-04-22 14:10 | 42.06078 | -3.10259 | 34009 ft | 447 kts | 19° |
| 2026-04-22 14:10 | 42.11820 | -3.07034 | 34012 ft | 447 kts | 19° |
| 2026-04-22 14:11 | 42.17552 | -3.03808 | 34010 ft | 446 kts | 19° |
| 2026-04-22 14:11 | 42.23268 | -3.00585 | 33987 ft | 444 kts | 19° |
| 2026-04-22 14:12 | 42.28960 | -2.97369 | 34002 ft | 443 kts | 19° |
| 2026-04-22 14:12 | 42.34635 | -2.94156 | 34000 ft | 441 kts | 19° |
| 2026-04-22 14:13 | 42.40296 | -2.90945 | 33989 ft | 441 kts | 19° |
| 2026-04-22 14:13 | 42.45835 | -2.87341 | 33983 ft | 446 kts | 30° |
| 2026-04-22 14:14 | 42.50621 | -2.81940 | 33992 ft | 449 kts | 39° |
| 2026-04-22 14:14 | 42.55215 | -2.76268 | 33997 ft | 450 kts | 39° |
| 2026-04-22 14:15 | 42.59899 | -2.70535 | 34009 ft | 451 kts | 38° |
| 2026-04-22 14:15 | 42.64547 | -2.64897 | 34025 ft | 451 kts | 38° |
| 2026-04-22 14:16 | 42.69242 | -2.59212 | 34033 ft | 452 kts | 38° |
| 2026-04-22 14:16 | 42.73932 | -2.53518 | 34033 ft | 452 kts | 38° |
| 2026-04-22 14:17 | 42.78619 | -2.47814 | 34035 ft | 452 kts | 38° |
| 2026-04-22 14:17 | 42.83297 | -2.42108 | 34031 ft | 451 kts | 38° |
| 2026-04-22 14:18 | 42.87967 | -2.36399 | 34032 ft | 450 kts | 38° |
| 2026-04-22 14:18 | 42.92622 | -2.30696 | 34036 ft | 450 kts | 38° |
| 2026-04-22 14:19 | 42.97270 | -2.24993 | 34035 ft | 449 kts | 38° |
| 2026-04-22 14:19 | 43.01898 | -2.19289 | 34054 ft | 448 kts | 38° |
| 2026-04-22 14:20 | 43.08823 | -2.10715 | 34065 ft | 447 kts | 38° |
| 2026-04-22 14:20 | 43.13435 | -2.04998 | 34061 ft | 447 kts | 38° |
| 2026-04-22 14:21 | 43.20340 | -1.96424 | 34067 ft | 447 kts | 38° |
| 2026-04-22 14:22 | 43.27244 | -1.87821 | 34077 ft | 447 kts | 38° |
| 2026-04-22 14:23 | 43.34585 | -1.80167 | 34078 ft | 438 kts | 24° |
| 2026-04-22 14:23 | 43.39914 | -1.76100 | 34072 ft | 439 kts | 27° |
| 2026-04-22 14:24 | 43.45041 | -1.71493 | 34083 ft | 440 kts | 29° |
| 2026-04-22 14:24 | 43.50126 | -1.66782 | 34078 ft | 440 kts | 29° |
| 2026-04-22 14:25 | 43.55226 | -1.62105 | 34065 ft | 440 kts | 29° |
| 2026-04-22 14:25 | 43.60327 | -1.57464 | 34059 ft | 439 kts | 29° |
| 2026-04-22 14:26 | 43.65429 | -1.52827 | 34055 ft | 439 kts | 28° |
| 2026-04-22 14:26 | 43.70537 | -1.48176 | 34040 ft | 440 kts | 29° |
| 2026-04-22 14:27 | 43.75649 | -1.43509 | 34040 ft | 440 kts | 29° |
| 2026-04-22 14:27 | 43.80757 | -1.38836 | 34044 ft | 440 kts | 29° |
| 2026-04-22 14:28 | 43.85867 | -1.34151 | 34038 ft | 441 kts | 29° |
| 2026-04-22 14:28 | 43.90982 | -1.29452 | 34033 ft | 441 kts | 29° |
| 2026-04-22 14:29 | 43.96062 | -1.24776 | 34031 ft | 441 kts | 29° |
| 2026-04-22 14:29 | 44.01210 | -1.20026 | 34026 ft | 442 kts | 29° |
| 2026-04-22 14:30 | 44.06296 | -1.15323 | 34019 ft | 442 kts | 29° |
| 2026-04-22 14:30 | 44.11421 | -1.10575 | 34024 ft | 443 kts | 29° |
| 2026-04-22 14:31 | 44.16546 | -1.05816 | 34005 ft | 443 kts | 29° |
| 2026-04-22 14:31 | 44.21706 | -1.01015 | 34004 ft | 443 kts | 29° |
| 2026-04-22 14:32 | 44.26795 | -0.96269 | 34004 ft | 443 kts | 29° |
| 2026-04-22 14:32 | 44.31914 | -0.91485 | 33994 ft | 443 kts | 29° |
| 2026-04-22 14:33 | 44.37035 | -0.86691 | 33994 ft | 443 kts | 29° |
| 2026-04-22 14:33 | 44.42437 | -0.82803 | 33998 ft | 432 kts | 12° |
| 2026-04-22 14:34 | 44.48193 | -0.80474 | 33994 ft | 430 kts | 11° |
| 2026-04-22 14:34 | 44.53956 | -0.78192 | 33997 ft | 431 kts | 11° |
| 2026-04-22 14:35 | 44.58748 | -0.76255 | 34006 ft | 431 kts | 11° |
| 2026-04-22 14:35 | 44.64504 | -0.73892 | 33997 ft | 431 kts | 12° |
| 2026-04-22 14:36 | 44.70258 | -0.71513 | 33994 ft | 431 kts | 12° |
| 2026-04-22 14:36 | 44.76010 | -0.69129 | 33995 ft | 431 kts | 12° |
| 2026-04-22 14:37 | 44.81758 | -0.66743 | 33998 ft | 430 kts | 12° |
| 2026-04-22 14:37 | 44.87502 | -0.64354 | 33993 ft | 430 kts | 12° |
| 2026-04-22 14:38 | 44.93243 | -0.61962 | 33989 ft | 430 kts | 12° |
| 2026-04-22 14:38 | 44.98980 | -0.59566 | 33996 ft | 430 kts | 12° |
| 2026-04-22 14:39 | 45.04720 | -0.57164 | 33967 ft | 430 kts | 12° |
| 2026-04-22 14:39 | 45.10448 | -0.54761 | 33959 ft | 424 kts | 12° |
| 2026-04-22 14:40 | 45.16008 | -0.52417 | 33473 ft | 409 kts | 11° |
| 2026-04-22 14:40 | 45.18724 | -0.51273 | 33084 ft | 405 kts | 11° |
| 2026-04-22 14:40 | 45.21408 | -0.50142 | 32724 ft | 401 kts | 11° |
| 2026-04-22 14:40 | 45.24074 | -0.49020 | 32333 ft | 398 kts | 11° |
| 2026-04-22 14:41 | 45.26719 | -0.47905 | 31958 ft | 395 kts | 12° |
| 2026-04-22 14:41 | 45.29341 | -0.46798 | 31590 ft | 392 kts | 12° |
| 2026-04-22 14:41 | 45.31943 | -0.45698 | 31231 ft | 389 kts | 12° |
| 2026-04-22 14:41 | 45.34527 | -0.44605 | 30874 ft | 386 kts | 12° |
| 2026-04-22 14:42 | 45.37093 | -0.43518 | 30521 ft | 384 kts | 12° |
| 2026-04-22 14:42 | 45.39642 | -0.42438 | 30178 ft | 381 kts | 12° |
| 2026-04-22 14:42 | 45.42177 | -0.41362 | 29786 ft | 379 kts | 12° |
| 2026-04-22 14:42 | 45.44695 | -0.40292 | 29395 ft | 376 kts | 12° |
| 2026-04-22 14:43 | 45.47188 | -0.39231 | 29036 ft | 372 kts | 12° |
| 2026-04-22 14:43 | 45.49656 | -0.38180 | 28678 ft | 369 kts | 12° |
| 2026-04-22 14:43 | 45.52105 | -0.37137 | 28321 ft | 366 kts | 12° |
| 2026-04-22 14:43 | 45.54531 | -0.36103 | 27969 ft | 362 kts | 12° |
| 2026-04-22 14:44 | 45.56905 | -0.35090 | 27617 ft | 360 kts | 12° |
| 2026-04-22 14:44 | 45.59294 | -0.34070 | 27286 ft | 358 kts | 12° |
| 2026-04-22 14:44 | 45.61676 | -0.33052 | 26922 ft | 357 kts | 12° |
| 2026-04-22 14:44 | 45.64073 | -0.32201 | 26563 ft | 353 kts | 360° |
| 2026-04-22 14:45 | 45.66494 | -0.32572 | 26288 ft | 353 kts | 339° |
| 2026-04-22 14:45 | 45.68707 | -0.34110 | 25901 ft | 355 kts | 322° |
| 2026-04-22 14:45 | 45.70663 | -0.36227 | 25555 ft | 352 kts | 319° |
| 2026-04-22 14:45 | 45.72569 | -0.38405 | 25181 ft | 350 kts | 319° |
| 2026-04-22 14:46 | 45.74454 | -0.40586 | 24818 ft | 348 kts | 319° |
| 2026-04-22 14:46 | 45.76332 | -0.42755 | 24463 ft | 346 kts | 319° |
| 2026-04-22 14:46 | 45.78202 | -0.44902 | 24124 ft | 344 kts | 319° |
| 2026-04-22 14:46 | 45.80066 | -0.47032 | 23780 ft | 342 kts | 319° |
| 2026-04-22 14:47 | 45.81922 | -0.49147 | 23407 ft | 340 kts | 319° |
| 2026-04-22 14:47 | 45.83771 | -0.51249 | 23004 ft | 338 kts | 319° |
| 2026-04-22 14:47 | 45.85611 | -0.53340 | 22645 ft | 336 kts | 319° |
| 2026-04-22 14:47 | 45.87432 | -0.55409 | 22310 ft | 333 kts | 319° |
| 2026-04-22 14:48 | 45.89242 | -0.57467 | 21961 ft | 331 kts | 319° |
| 2026-04-22 14:48 | 45.91038 | -0.59510 | 21616 ft | 328 kts | 319° |
| 2026-04-22 14:48 | 45.92820 | -0.61538 | 21279 ft | 326 kts | 319° |
| 2026-04-22 14:48 | 45.94590 | -0.63555 | 20958 ft | 324 kts | 319° |
| 2026-04-22 14:49 | 45.96348 | -0.65560 | 20633 ft | 321 kts | 319° |
| 2026-04-22 14:49 | 45.98094 | -0.67552 | 20316 ft | 319 kts | 319° |
| 2026-04-22 14:49 | 45.99829 | -0.69534 | 19978 ft | 318 kts | 319° |
| 2026-04-22 14:49 | 46.01553 | -0.71505 | 19671 ft | 316 kts | 319° |
| 2026-04-22 14:50 | 46.03269 | -0.73469 | 19352 ft | 314 kts | 319° |
| 2026-04-22 14:50 | 46.04977 | -0.75424 | 19030 ft | 313 kts | 319° |
| 2026-04-22 14:50 | 46.06678 | -0.77372 | 18717 ft | 312 kts | 319° |
| 2026-04-22 14:50 | 46.08369 | -0.79313 | 18398 ft | 311 kts | 319° |
| 2026-04-22 14:51 | 46.10058 | -0.81251 | 18054 ft | 310 kts | 318° |
| 2026-04-22 14:51 | 46.11737 | -0.83181 | 17705 ft | 308 kts | 319° |
| 2026-04-22 14:51 | 46.13409 | -0.85104 | 17369 ft | 307 kts | 319° |
| 2026-04-22 14:51 | 46.15073 | -0.87018 | 17053 ft | 305 kts | 319° |
| 2026-04-22 14:52 | 46.16727 | -0.88921 | 16738 ft | 303 kts | 319° |
| 2026-04-22 14:52 | 46.18368 | -0.90812 | 16435 ft | 301 kts | 319° |
| 2026-04-22 14:52 | 46.20002 | -0.92697 | 16120 ft | 300 kts | 318° |
| 2026-04-22 14:52 | 46.21626 | -0.94573 | 15795 ft | 298 kts | 319° |
| 2026-04-22 14:53 | 46.23242 | -0.96436 | 15508 ft | 297 kts | 319° |
| 2026-04-22 14:53 | 46.24852 | -0.98291 | 15208 ft | 295 kts | 318° |
| 2026-04-22 14:53 | 46.26455 | -1.00142 | 14901 ft | 295 kts | 319° |
| 2026-04-22 14:53 | 46.28058 | -1.01991 | 14596 ft | 295 kts | 319° |
| 2026-04-22 14:54 | 46.29670 | -1.03854 | 14289 ft | 299 kts | 320° |
| 2026-04-22 14:54 | 46.31304 | -1.05748 | 13992 ft | 304 kts | 320° |
| 2026-04-22 14:54 | 46.32965 | -1.07673 | 13661 ft | 308 kts | 319° |
| 2026-04-22 14:54 | 46.34623 | -1.09596 | 13306 ft | 309 kts | 320° |
| 2026-04-22 14:55 | 46.36295 | -1.11535 | 12969 ft | 307 kts | 319° |
| 2026-04-22 14:55 | 46.37956 | -1.13463 | 12650 ft | 305 kts | 320° |
| 2026-04-22 14:55 | 46.39630 | -1.15408 | 12322 ft | 303 kts | 319° |
| 2026-04-22 14:55 | 46.41268 | -1.17315 | 12029 ft | 301 kts | 319° |
| 2026-04-22 14:56 | 46.42874 | -1.19182 | 11723 ft | 299 kts | 320° |
| 2026-04-22 14:56 | 46.44493 | -1.21068 | 11422 ft | 298 kts | 320° |
| 2026-04-22 14:56 | 46.46102 | -1.22947 | 11099 ft | 297 kts | 320° |
| 2026-04-22 14:56 | 46.47698 | -1.24808 | 11018 ft | 290 kts | 319° |
| 2026-04-22 14:57 | 46.49251 | -1.26624 | 11008 ft | 284 kts | 320° |
| 2026-04-22 14:57 | 46.50776 | -1.28404 | 10849 ft | 281 kts | 319° |
| 2026-04-22 14:57 | 46.52327 | -1.30218 | 10296 ft | 291 kts | 319° |
| 2026-04-22 14:57 | 46.53901 | -1.32060 | 10017 ft | 290 kts | 320° |
| 2026-04-22 14:58 | 46.55478 | -1.33906 | 9677 ft | 291 kts | 320° |
| 2026-04-22 14:58 | 46.57050 | -1.35750 | 9376 ft | 290 kts | 320° |
| 2026-04-22 14:58 | 46.58614 | -1.37584 | 9088 ft | 288 kts | 320° |
| 2026-04-22 14:58 | 46.60252 | -1.39234 | 8783 ft | 287 kts | 337° |
| 2026-04-22 14:59 | 46.62158 | -1.40038 | 8561 ft | 284 kts | 346° |
| 2026-04-22 14:59 | 46.64076 | -1.40719 | 8250 ft | 283 kts | 346° |
| 2026-04-22 14:59 | 46.65981 | -1.41421 | 7979 ft | 282 kts | 345° |
| 2026-04-22 14:59 | 46.67878 | -1.42137 | 7692 ft | 281 kts | 345° |
| 2026-04-22 15:00 | 46.69765 | -1.42856 | 7412 ft | 281 kts | 345° |
| 2026-04-22 15:00 | 46.71654 | -1.43581 | 7132 ft | 281 kts | 345° |
| 2026-04-22 15:00 | 46.73539 | -1.44323 | 6843 ft | 280 kts | 345° |
| 2026-04-22 15:00 | 46.75415 | -1.45066 | 6575 ft | 279 kts | 345° |
| 2026-04-22 15:01 | 46.77289 | -1.45810 | 6280 ft | 279 kts | 345° |
| 2026-04-22 15:01 | 46.79157 | -1.46551 | 5992 ft | 278 kts | 345° |
| 2026-04-22 15:01 | 46.81024 | -1.47294 | 5697 ft | 278 kts | 345° |
| 2026-04-22 15:01 | 46.82888 | -1.48032 | 5394 ft | 277 kts | 345° |
| 2026-04-22 15:02 | 46.84722 | -1.48761 | 5273 ft | 270 kts | 345° |
| 2026-04-22 15:02 | 46.86494 | -1.49466 | 5129 ft | 258 kts | 345° |
| 2026-04-22 15:02 | 46.88191 | -1.50142 | 5007 ft | 249 kts | 345° |
| 2026-04-22 15:02 | 46.89834 | -1.50889 | 4844 ft | 247 kts | 332° |
| 2026-04-22 15:03 | 46.91038 | -1.52599 | 4675 ft | 244 kts | 294° |
| 2026-04-22 15:03 | 46.91397 | -1.54956 | 4505 ft | 234 kts | 268° |
| 2026-04-22 15:03 | 46.91331 | -1.57223 | 4498 ft | 213 kts | 262° |
| 2026-04-22 15:03 | 46.91206 | -1.59342 | 4334 ft | 209 kts | 265° |
| 2026-04-22 15:04 | 46.91163 | -1.61471 | 4145 ft | 210 kts | 268° |
| 2026-04-22 15:04 | 46.91208 | -1.63605 | 3966 ft | 209 kts | 271° |
| 2026-04-22 15:04 | 46.91341 | -1.65720 | 3767 ft | 208 kts | 275° |
| 2026-04-22 15:04 | 46.91558 | -1.67820 | 3616 ft | 210 kts | 279° |
| 2026-04-22 15:05 | 46.91859 | -1.69919 | 3449 ft | 212 kts | 282° |
| 2026-04-22 15:05 | 46.92226 | -1.72014 | 3261 ft | 210 kts | 285° |
| 2026-04-22 15:05 | 46.92665 | -1.74022 | 3052 ft | 204 kts | 290° |
| 2026-04-22 15:05 | 46.93275 | -1.75841 | 2980 ft | 197 kts | 320° |
| 2026-04-22 15:06 | 46.94020 | -1.76485 | 2981 ft | 184 kts | 355° |
| 2026-04-22 15:06 | 46.95616 | -1.75998 | 2995 ft | 182 kts | 28° |
| 2026-04-22 15:06 | 46.96774 | -1.75295 | 2984 ft | 178 kts | 28° |
| 2026-04-22 15:06 | 46.97863 | -1.74484 | 2989 ft | 175 kts | 32° |
| 2026-04-22 15:07 | 46.98923 | -1.73660 | 2986 ft | 169 kts | 33° |
| 2026-04-22 15:07 | 46.99983 | -1.72838 | 3004 ft | 176 kts | 32° |
| 2026-04-22 15:07 | 47.01075 | -1.71998 | 2946 ft | 177 kts | 31° |
| 2026-04-22 15:07 | 47.02180 | -1.71152 | 2713 ft | 178 kts | 32° |
| 2026-04-22 15:08 | 47.03227 | -1.70350 | 2490 ft | 162 kts | 34° |
| 2026-04-22 15:08 | 47.04176 | -1.69621 | 2288 ft | 147 kts | 34° |
| 2026-04-22 15:08 | 47.05041 | -1.68962 | 2113 ft | 138 kts | 35° |
| 2026-04-22 15:08 | 47.05875 | -1.68317 | 1939 ft | 133 kts | 34° |
| 2026-04-22 15:09 | 47.06717 | -1.67668 | 1762 ft | 140 kts | 34° |
| 2026-04-22 15:09 | 47.07574 | -1.67011 | 1568 ft | 138 kts | 33° |
| 2026-04-22 15:09 | 47.08410 | -1.66371 | 1378 ft | 134 kts | 34° |
| 2026-04-22 15:09 | 47.09244 | -1.65731 | 1187 ft | 137 kts | 33° |
| 2026-04-22 15:10 | 47.10083 | -1.65077 | 1010 ft | 138 kts | 33° |
| 2026-04-22 15:10 | 47.10933 | -1.64429 | 824 ft | 138 kts | 36° |
| 2026-04-22 15:10 | 47.11757 | -1.63795 | 643 ft | 131 kts | 31° |
| 2026-04-22 15:10 | 47.12569 | -1.63186 | 493 ft | 132 kts | 33° |
| 2026-04-22 15:11 | 47.13400 | -1.62555 | 315 ft | 135 kts | 32° |
| 2026-04-22 15:11 | 47.14212 | -1.61920 | 125 ft | 131 kts | 30° |
| 2026-04-22 15:11 | 47.14937 | -1.61362 | 86 ft | 91 kts | 28° |
| 2026-04-22 15:11 | 47.15303 | -1.61085 | 86 ft | 36 kts | 27° |
| 2026-04-22 15:12 | 47.15515 | -1.60924 | 86 ft | 33 kts | 28° |
| 2026-04-22 15:12 | 47.15695 | -1.60786 | 86 ft | 23 kts | 26° |
| 2026-04-22 15:12 | 47.15816 | -1.60684 | 85 ft | 16 kts | 47° |
| 2026-04-22 15:12 | 47.15824 | -1.60555 | 88 ft | 8 kts | 118° |
| 2026-04-22 15:13 | 47.15804 | -1.60510 | 88 ft | 4 kts | 128° |
| 2026-04-22 15:13 | 47.15785 | -1.60485 | 89 ft | 4 kts | 140° |
| 2026-04-22 15:13 | 47.15766 | -1.60463 | 88 ft | 4 kts | 144° |
| 2026-04-22 15:13 | 47.15745 | -1.60443 | 89 ft | 4 kts | 146° |
| 2026-04-22 15:14 | 47.15718 | -1.60414 | 89 ft | 6 kts | 143° |
| 2026-04-22 15:14 | 47.15673 | -1.60360 | 89 ft | 10 kts | 138° |
| 2026-04-22 15:14 | 47.15618 | -1.60284 | 90 ft | 11 kts | 129° |
| 2026-04-22 15:14 | 47.15583 | -1.60191 | 91 ft | 10 kts | 116° |
| 2026-04-22 15:15 | 47.15555 | -1.60110 | 90 ft | 7 kts | 117° |
| 2026-04-22 15:15 | 47.15522 | -1.60089 | 90 ft | 4 kts | 194° |
| 2026-04-22 15:15 | 47.15499 | -1.60104 | 90 ft | 3 kts | 205° |
| 2026-04-22 15:15 | 47.15491 | -1.60109 | 91 ft | 0 kts | 206° |